createdAt,value
2018-06-12T04:39:35.156Z,100
2018-06-12T04:39:55.388Z,100
2018-06-12T04:40:15.560Z,100
2018-06-12T04:45:44.434Z,100
2018-06-12T04:46:04.856Z,100
2018-06-12T04:46:25.117Z,100
2018-06-12T04:46:45.259Z,100
2018-06-12T04:48:48.487Z,100
2018-06-12T04:50:54.963Z,100
2018-06-12T04:51:15.147Z,100
2018-06-12T04:51:35.431Z,100
2018-06-12T04:56:10.745Z,100
2018-06-12T04:59:28.808Z,100
2018-06-12T05:06:58.159Z,100
2018-06-12T05:10:28.692Z,100
2018-06-12T05:11:18.187Z,100
2018-06-12T05:13:12.570Z,100
2018-06-12T05:13:32.742Z,100
2018-06-12T05:13:53.554Z,100
2018-06-12T05:14:13.689Z,100
2018-06-12T05:14:33.914Z,100
2018-06-12T05:14:54.086Z,100
2018-06-12T05:15:14.280Z,100
2018-06-12T05:16:30.687Z,100
2018-06-12T05:16:50.873Z,100
2018-06-12T05:17:57.373Z,100
2018-06-12T05:18:17.605Z,100
2018-06-12T05:18:37.851Z,100
2018-06-12T05:19:11.834Z,100
2018-06-12T05:19:32.059Z,100
2018-06-12T05:19:52.252Z,100
2018-06-12T05:20:12.510Z,100
2018-06-12T05:20:32.773Z,100
2018-06-12T05:20:52.985Z,100
2018-06-12T05:21:13.147Z,100
2018-06-12T05:21:33.319Z,100
2018-06-12T05:21:53.581Z,100
2018-06-12T05:22:13.743Z,100
2018-06-12T05:22:33.923Z,100
2018-06-12T05:22:54.190Z,100
2018-06-12T05:24:03.153Z,100
2018-06-12T05:24:23.301Z,100
2018-06-12T05:25:17.524Z,100
2018-06-12T05:25:37.754Z,100
2018-06-12T05:26:31.875Z,100
2018-06-12T05:26:52.171Z,100
2018-06-12T05:27:46.348Z,100
2018-06-12T05:28:06.523Z,100
2018-06-12T05:28:48.317Z,100
2018-06-12T05:29:08.467Z,100
2018-06-12T05:30:02.706Z,100
2018-06-12T05:30:58.613Z,100
2018-06-12T05:31:18.811Z,100
2018-06-12T05:32:12.900Z,100
2018-06-12T05:32:33.091Z,100
2018-06-12T05:33:27.275Z,100
2018-06-12T05:33:47.429Z,100
2018-06-12T05:34:41.593Z,100
2018-06-12T05:35:01.768Z,100
2018-06-12T05:36:02.432Z,100
2018-06-12T05:36:22.678Z,100
2018-06-12T05:37:10.822Z,100
2018-06-12T05:37:30.973Z,99.9
2018-06-12T05:38:31.810Z,100
2018-06-12T05:38:51.963Z,100
2018-06-12T05:39:12.138Z,100
2018-06-12T05:39:58.947Z,100
2018-06-12T05:40:19.106Z,100
2018-06-12T05:40:39.321Z,100
2018-06-12T05:41:26.188Z,100
2018-06-12T05:41:46.373Z,100
2018-06-12T05:42:40.828Z,100
2018-06-12T05:44:38.660Z,100
2018-06-12T05:47:13.657Z,100
2018-06-12T05:48:03.238Z,100
2018-06-12T05:48:52.739Z,100
2018-06-12T05:49:36.197Z,100
2018-06-12T05:50:19.677Z,99.7
2018-06-12T05:50:39.905Z,99.9
2018-06-12T05:51:00.052Z,100
2018-06-12T05:51:46.810Z,100
2018-06-12T05:52:06.999Z,100
2018-06-12T05:52:55.408Z,100
2018-06-12T05:53:15.624Z,100
2018-06-12T05:53:35.788Z,100
2018-06-12T05:54:35.035Z,100
2018-06-12T05:54:55.202Z,100
2018-06-12T05:55:15.365Z,100
2018-06-12T05:55:35.530Z,100
2018-06-12T05:55:55.706Z,100
2018-06-12T05:56:16.765Z,100
2018-06-12T05:56:36.943Z,100
2018-06-12T05:56:57.121Z,100
2018-06-12T05:57:48.316Z,100
2018-06-12T05:58:08.467Z,100
2018-06-12T05:58:28.654Z,100
2018-06-12T05:59:03.188Z,99.9
2018-06-12T05:59:23.424Z,100
2018-06-12T06:00:48.988Z,100
2018-06-12T06:01:38.816Z,100
2018-06-12T06:02:41.091Z,100
2018-06-12T06:05:16.551Z,100
2018-06-12T06:07:02.026Z,99.7
2018-06-12T06:07:22.220Z,99.8
2018-06-12T06:08:23.011Z,99.2
2018-06-12T06:08:43.320Z,98.2
2018-06-12T06:09:43.999Z,99.2
2018-06-12T06:10:04.241Z,99.7
2018-06-12T06:10:24.414Z,99.7
2018-06-12T06:10:58.762Z,99.6
2018-06-12T06:11:18.935Z,99.2
2018-06-12T06:11:39.142Z,99.6
2018-06-12T06:11:59.313Z,99.2
2018-06-12T06:12:19.524Z,99.2
2018-06-12T06:12:39.719Z,99.7
2018-06-12T06:12:59.891Z,100
2018-06-12T06:13:20.068Z,99.8
2018-06-12T06:13:40.240Z,100
2018-06-12T06:14:00.558Z,99.8
2018-06-12T06:14:20.707Z,99.7
2018-06-12T06:14:40.880Z,99.9
2018-06-12T06:15:01.062Z,99.5
2018-06-12T06:15:21.219Z,99.8
2018-06-12T06:15:41.380Z,99.7
2018-06-12T06:16:01.570Z,99.1
2018-06-12T06:16:21.711Z,99.2
2018-06-12T06:16:41.852Z,99.1
2018-06-12T06:17:02.097Z,98.6
2018-06-12T06:17:22.337Z,98.3
2018-06-12T06:17:42.523Z,99.2
2018-06-12T06:18:02.679Z,98.5
2018-06-12T06:18:22.875Z,98.6
2018-06-12T06:18:43.092Z,98.6
2018-06-12T06:19:03.280Z,97.9
2018-06-12T06:19:23.458Z,97.9
2018-06-12T06:19:43.623Z,98.6
2018-06-12T06:20:03.772Z,97.9
2018-06-12T06:20:23.953Z,97.9
2018-06-12T06:20:44.126Z,98.3
2018-06-12T06:21:04.286Z,98.3
2018-06-12T06:21:24.444Z,99.5
2018-06-12T06:21:44.614Z,99.2
2018-06-12T06:22:04.773Z,98.5
2018-06-12T06:22:24.999Z,98.8
2018-06-12T06:22:45.332Z,99.9
2018-06-12T06:23:05.454Z,100
2018-06-12T06:23:25.618Z,99.5
2018-06-12T06:23:45.841Z,99.8
2018-06-12T06:24:06.005Z,99.8
2018-06-12T06:24:26.186Z,100
2018-06-12T06:24:46.344Z,100
2018-06-12T06:25:06.552Z,99.9
2018-06-12T06:25:26.716Z,99.7
2018-06-12T06:25:46.870Z,99.1
2018-06-12T06:26:07.043Z,98.9
2018-06-12T06:26:27.201Z,99.2
2018-06-12T06:26:47.349Z,99.3
2018-06-12T06:27:07.536Z,100
2018-06-12T06:27:27.694Z,100
2018-06-12T06:27:47.892Z,100
2018-06-12T06:28:08.061Z,100
2018-06-12T06:28:28.211Z,100
2018-06-12T06:28:48.349Z,100
2018-06-12T06:29:08.597Z,100
2018-06-12T06:29:28.865Z,100
2018-06-12T06:29:49.130Z,100
2018-06-12T06:30:09.268Z,100
2018-06-12T06:30:29.407Z,100
2018-06-12T06:30:49.578Z,100
2018-06-12T06:31:09.742Z,100
2018-06-12T06:31:30.019Z,100
2018-06-12T06:31:50.230Z,100
2018-06-12T06:32:10.359Z,100
2018-06-12T06:32:30.519Z,99.3
2018-06-12T06:32:50.720Z,99.8
2018-06-12T06:33:10.905Z,100
2018-06-12T06:33:31.114Z,98.2
2018-06-12T06:33:51.286Z,98.9
2018-06-12T06:34:11.509Z,99.1
2018-06-12T06:34:31.700Z,99
2018-06-12T06:34:51.992Z,100
2018-06-12T06:35:12.230Z,100
2018-06-12T06:35:32.356Z,100
2018-06-12T06:35:52.570Z,100
2018-06-12T06:36:12.760Z,100
2018-06-12T06:36:33.100Z,99.8
2018-06-12T06:36:53.270Z,99.9
2018-06-12T06:37:13.462Z,99.8
2018-06-12T06:37:33.627Z,99.8
2018-06-12T06:37:53.766Z,99.9
2018-06-12T06:38:13.920Z,99.8
2018-06-12T06:38:34.074Z,100
2018-06-12T06:38:54.237Z,100
2018-06-12T06:39:14.433Z,100
2018-06-12T06:39:34.666Z,100
2018-06-12T06:39:54.843Z,99.8
2018-06-12T06:40:15.061Z,99.1
2018-06-12T06:40:35.231Z,99.7
2018-06-12T06:40:55.419Z,100
2018-06-12T06:41:15.600Z,100
2018-06-12T06:41:35.788Z,100
2018-06-12T06:41:56.014Z,100
2018-06-12T06:42:16.239Z,100
2018-06-12T06:42:36.409Z,99.7
2018-06-12T06:42:56.604Z,100
2018-06-12T06:43:16.865Z,99.8
2018-06-12T06:43:37.023Z,97.9
2018-06-12T06:43:57.238Z,96.9
2018-06-12T06:44:17.398Z,97.2
2018-06-12T06:44:37.592Z,98.4
2018-06-12T06:44:57.771Z,97.7
2018-06-12T06:45:17.942Z,97.5
2018-06-12T06:45:38.098Z,97.9
2018-06-12T06:45:58.319Z,97.9
2018-06-12T06:46:18.486Z,97.7
2018-06-12T06:46:38.773Z,98
2018-06-12T06:46:58.956Z,97.9
2018-06-12T06:47:19.155Z,98.5
2018-06-12T06:47:39.310Z,99
2018-06-12T06:47:59.491Z,99.9
2018-06-12T06:48:19.629Z,99.7
2018-06-12T06:48:39.792Z,98.8
2018-06-12T06:49:00.011Z,97.6
2018-06-12T06:49:20.215Z,98.2
2018-06-12T06:49:40.384Z,98.2
2018-06-12T06:50:00.598Z,99.2
2018-06-12T06:50:20.748Z,99
2018-06-12T06:50:40.922Z,99.2
2018-06-12T06:51:01.107Z,98.8
2018-06-12T06:51:21.273Z,98.3
2018-06-12T06:51:41.515Z,98.1
2018-06-12T06:52:01.680Z,99.1
2018-06-12T06:52:21.837Z,98.9
2018-06-12T06:52:41.996Z,99.8
2018-06-12T06:53:02.180Z,99.7
2018-06-12T06:53:22.349Z,100
2018-06-12T06:53:42.545Z,100
2018-06-12T06:54:02.695Z,100
2018-06-12T06:54:22.880Z,100
2018-06-12T06:54:43.041Z,99.4
2018-06-12T06:55:03.216Z,99.2
2018-06-12T06:55:23.446Z,99.2
2018-06-12T06:55:43.654Z,99.3
2018-06-12T06:56:03.844Z,98.5
2018-06-12T06:56:24.033Z,98.8
2018-06-12T06:56:44.202Z,99.2
2018-06-12T06:57:04.402Z,99.2
2018-06-12T06:57:24.557Z,98.5
2018-06-12T06:57:44.716Z,98.6
2018-06-12T06:58:04.882Z,98.5
2018-06-12T06:58:25.053Z,98.5
2018-06-12T06:58:45.238Z,99.7
2018-06-12T06:59:05.546Z,99.2
2018-06-12T06:59:25.690Z,99.4
2018-06-12T06:59:45.879Z,99.2
2018-06-12T07:00:06.132Z,100
2018-06-12T07:00:26.287Z,99.6
2018-06-12T07:00:46.456Z,99.4
2018-06-12T07:01:06.625Z,99.9
2018-06-12T07:01:26.840Z,100
2018-06-12T07:01:47.002Z,100
2018-06-12T07:02:07.193Z,100
2018-06-12T07:02:27.459Z,100
2018-06-12T07:02:47.642Z,100
2018-06-12T07:03:07.817Z,100
2018-06-12T07:03:27.999Z,99.5
2018-06-12T07:03:48.173Z,99.6
2018-06-12T07:04:08.360Z,99.8
2018-06-12T07:04:28.526Z,99.9
2018-06-12T07:04:48.755Z,100
2018-06-12T07:05:08.923Z,100
2018-06-12T07:05:29.096Z,100
2018-06-12T07:05:49.375Z,100
2018-06-12T07:06:09.555Z,100
2018-06-12T07:06:29.694Z,100
2018-06-12T07:06:49.863Z,100
2018-06-12T07:07:10.054Z,100
2018-06-12T07:07:30.226Z,100
2018-06-12T07:07:50.377Z,100
2018-06-12T07:08:10.543Z,100
2018-06-12T07:08:30.812Z,100
2018-06-12T07:08:51.000Z,100
2018-06-12T07:09:11.216Z,100
2018-06-12T07:09:31.334Z,100
2018-06-12T07:09:51.475Z,100
2018-06-12T07:10:11.634Z,100
2018-06-12T07:10:31.812Z,100
2018-06-12T07:10:51.975Z,100
2018-06-12T07:11:12.166Z,100
2018-06-12T07:11:32.340Z,100
2018-06-12T07:11:52.474Z,100
2018-06-12T07:12:12.655Z,100
2018-06-12T07:12:32.826Z,100
2018-06-12T07:12:52.999Z,100
2018-06-12T07:13:13.154Z,100
2018-06-12T07:13:33.323Z,99.8
2018-06-12T07:13:53.518Z,100
2018-06-12T07:14:13.667Z,100
2018-06-12T07:14:33.921Z,100
2018-06-12T07:14:54.127Z,100
2018-06-12T07:15:14.399Z,100
2018-06-12T07:15:34.568Z,100
2018-06-12T07:15:54.742Z,100
2018-06-12T07:16:14.857Z,100
2018-06-12T07:16:35.042Z,100
2018-06-12T07:16:55.222Z,100
2018-06-12T07:17:15.357Z,100
2018-06-12T07:17:35.543Z,100
2018-06-12T07:17:55.699Z,100
2018-06-12T07:18:15.876Z,100
2018-06-12T07:18:36.055Z,99.5
2018-06-12T07:18:56.209Z,99
2018-06-12T07:19:16.375Z,99.3
2018-06-12T07:19:36.540Z,99.6
2018-06-12T07:19:56.696Z,99.7
2018-06-12T07:20:16.863Z,100
2018-06-12T07:20:37.102Z,100
2018-06-12T07:20:57.311Z,100
2018-06-12T07:21:17.458Z,100
2018-06-12T07:21:37.628Z,100
2018-06-12T07:21:57.767Z,100
2018-06-12T07:22:18.000Z,100
2018-06-12T07:22:38.187Z,100
2018-06-12T07:22:58.344Z,100
2018-06-12T07:23:18.506Z,100
2018-06-12T07:23:38.708Z,100
2018-06-12T07:23:58.856Z,100
2018-06-12T07:24:19.025Z,100
2018-06-12T07:24:39.198Z,100
2018-06-12T07:24:59.349Z,100
2018-06-12T07:25:19.530Z,100
2018-06-12T07:25:39.753Z,100
2018-06-12T07:25:59.968Z,100
2018-06-12T07:26:20.133Z,100
2018-06-12T07:26:40.299Z,100
2018-06-12T07:27:00.455Z,100
2018-06-12T07:27:20.714Z,100
2018-06-12T07:27:40.905Z,100
2018-06-12T07:28:01.065Z,100
2018-06-12T07:28:21.282Z,100
2018-06-12T07:28:41.461Z,100
2018-06-12T07:29:01.641Z,100
2018-06-12T07:29:21.857Z,100
2018-06-12T07:29:42.060Z,100
2018-06-12T07:30:02.287Z,100
2018-06-12T07:30:22.495Z,100
2018-06-12T07:30:42.659Z,100
2018-06-12T07:31:02.900Z,100
2018-06-12T07:31:23.053Z,100
2018-06-12T07:31:43.244Z,100
2018-06-12T07:32:03.412Z,100
2018-06-12T07:32:23.605Z,100
2018-06-12T07:32:43.789Z,100
2018-06-12T07:33:04.015Z,100
2018-06-12T07:33:24.234Z,100
2018-06-12T07:33:44.410Z,100
2018-06-12T07:34:04.577Z,100
2018-06-12T07:34:24.828Z,100
2018-06-12T07:34:45.052Z,100
2018-06-12T07:35:05.217Z,100
2018-06-12T07:35:25.377Z,100
2018-06-12T07:35:45.556Z,100
2018-06-12T07:36:05.819Z,100
2018-06-12T07:36:25.974Z,100
2018-06-12T07:36:46.131Z,97.5
2018-06-12T07:37:06.298Z,97.6
2018-06-12T07:37:26.548Z,97.7
2018-06-12T07:37:46.716Z,98.9
2018-06-12T07:38:06.907Z,98.6
2018-06-12T07:38:27.064Z,98.1
2018-06-12T07:38:47.207Z,98.3
2018-06-12T07:39:07.346Z,99.4
2018-06-12T07:39:27.493Z,100
2018-06-12T07:39:47.676Z,100
2018-06-12T07:40:07.819Z,100
2018-06-12T07:40:27.981Z,100
2018-06-12T07:40:48.150Z,99.5
2018-06-12T07:41:08.336Z,98.6
2018-06-12T07:41:28.543Z,98
2018-06-12T07:41:48.746Z,97.6
2018-06-12T07:42:08.921Z,97.4
2018-06-12T07:42:29.086Z,97.6
2018-06-12T07:42:49.280Z,96.8
2018-06-12T07:43:09.526Z,97.2
2018-06-12T07:43:29.797Z,98.6
2018-06-12T07:43:49.918Z,100
2018-06-12T07:44:10.036Z,99.9
2018-06-12T07:44:30.278Z,100
2018-06-12T07:44:50.446Z,100
2018-06-12T07:45:10.712Z,100
2018-06-12T07:45:30.860Z,100
2018-06-12T07:45:51.059Z,100
2018-06-12T07:46:11.226Z,100
2018-06-12T07:46:31.385Z,100
2018-06-12T07:46:51.588Z,99.9
2018-06-12T07:47:11.828Z,98.5
2018-06-12T07:47:31.988Z,98.9
2018-06-12T07:47:52.196Z,97.7
2018-06-12T07:48:12.378Z,97.5
2018-06-12T07:48:32.557Z,97
2018-06-12T07:48:52.733Z,97.7
2018-06-12T07:49:12.950Z,97.1
2018-06-12T07:49:33.122Z,97.6
2018-06-12T07:49:53.314Z,96.4
2018-06-12T07:50:13.461Z,96.6
2018-06-12T07:50:33.638Z,96.7
2018-06-12T07:50:53.784Z,96.6
2018-06-12T07:51:13.932Z,95.7
2018-06-12T07:51:34.142Z,94.6
2018-06-12T07:51:54.378Z,95.1
2018-06-12T07:52:14.554Z,95.8
2018-06-12T07:52:34.765Z,96.1
2018-06-12T07:52:54.920Z,96.4
2018-06-12T07:53:15.114Z,96.7
2018-06-12T07:53:35.276Z,95.6
2018-06-12T07:53:55.453Z,94.4
2018-06-12T07:54:15.628Z,95.7
2018-06-12T07:54:35.796Z,96.1
2018-06-12T07:54:56.007Z,96.5
2018-06-12T07:55:16.129Z,96.5
2018-06-12T07:55:36.298Z,96.5
2018-06-12T07:55:56.519Z,96.5
2018-06-12T07:56:16.697Z,95.7
2018-06-12T07:56:36.859Z,95.6
2018-06-12T07:56:57.026Z,95.7
2018-06-12T07:57:17.189Z,97.1
2018-06-12T07:57:37.356Z,98.4
2018-06-12T07:57:57.524Z,97.7
2018-06-12T07:58:17.687Z,96.9
2018-06-12T07:58:37.843Z,96.7
2018-06-12T07:58:58.026Z,96.5
2018-06-12T07:59:18.246Z,96.5
2018-06-12T07:59:38.503Z,94.9
2018-06-12T07:59:58.666Z,96.9
2018-06-12T08:00:18.800Z,96
2018-06-12T08:00:38.977Z,94.9
2018-06-12T08:00:59.239Z,95.4
2018-06-12T08:01:19.418Z,95.8
2018-06-12T08:01:39.581Z,95.8
2018-06-12T08:01:59.746Z,96.3
2018-06-12T08:02:19.903Z,94.2
2018-06-12T08:02:40.104Z,93.1
2018-06-12T08:03:00.275Z,93
2018-06-12T08:03:20.539Z,93.3
2018-06-12T08:03:40.864Z,93.1
2018-06-12T08:04:01.005Z,93.2
2018-06-12T08:04:21.199Z,93
2018-06-12T08:04:41.461Z,91.3
2018-06-12T08:05:01.633Z,91.7
2018-06-12T08:05:21.775Z,92.1
2018-06-12T08:05:41.945Z,92.3
2018-06-12T08:06:02.096Z,94.2
2018-06-12T08:06:22.392Z,94.7
2018-06-12T08:06:42.600Z,94.1
2018-06-12T08:07:02.883Z,92.9
2018-06-12T08:07:23.093Z,91.7
2018-06-12T08:07:43.332Z,90.8
2018-06-12T08:08:03.526Z,92.9
2018-06-12T08:08:23.701Z,91.8
2018-06-12T08:08:43.885Z,90
2018-06-12T08:09:04.103Z,90.5
2018-06-12T08:09:24.267Z,90.8
2018-06-12T08:09:44.466Z,91.1
2018-06-12T08:10:04.678Z,91
2018-06-12T08:10:24.925Z,91.8
2018-06-12T08:10:45.133Z,91.5
2018-06-12T08:11:05.408Z,91.7
2018-06-12T08:11:25.610Z,91.7
2018-06-12T08:11:45.807Z,91.4
2018-06-12T08:12:06.010Z,91.1
2018-06-12T08:12:26.176Z,91.4
2018-06-12T08:12:46.529Z,91.4
2018-06-12T08:13:06.825Z,91.1
2018-06-12T08:13:26.933Z,88.2
2018-06-12T08:13:47.121Z,86
2018-06-12T08:14:07.376Z,86
2018-06-12T08:14:27.575Z,85.2
2018-06-12T08:14:47.877Z,86
2018-06-12T08:15:08.117Z,87
2018-06-12T08:15:28.276Z,88.8
2018-06-12T08:15:48.501Z,89.1
2018-06-12T08:16:08.740Z,89.9
2018-06-12T08:16:28.921Z,90.6
2018-06-12T08:16:49.110Z,91.3
2018-06-12T08:17:09.358Z,91.9
2018-06-12T08:17:29.584Z,93.4
2018-06-12T08:17:49.737Z,91.7
2018-06-12T08:18:09.956Z,91.6
2018-06-12T08:18:30.268Z,88.7
2018-06-12T08:18:50.495Z,89.8
2018-06-12T08:19:10.704Z,90.2
2018-06-12T08:19:31.004Z,90.5
2018-06-12T08:19:51.234Z,91.4
2018-06-12T08:20:11.480Z,91
2018-06-12T08:20:31.657Z,90.7
2018-06-12T08:20:51.855Z,91.2
2018-06-12T08:21:12.118Z,90.8
2018-06-12T08:21:32.410Z,89.4
2018-06-12T08:21:52.641Z,89.3
2018-06-12T08:22:12.944Z,89
2018-06-12T08:22:33.220Z,89.4
2018-06-12T08:22:53.383Z,87.9
2018-06-12T08:23:13.632Z,88.7
2018-06-12T08:23:33.878Z,89.5
2018-06-12T08:23:54.232Z,88.9
2018-06-12T08:24:14.390Z,88.6
2018-06-12T08:24:34.850Z,90.9
2018-06-12T08:24:55.108Z,91.1
2018-06-12T08:25:15.439Z,90.8
2018-06-12T08:25:35.626Z,90.2
2018-06-12T08:25:55.804Z,91.4
2018-06-12T08:26:15.953Z,91.5
2018-06-12T08:26:36.191Z,91.1
2018-06-12T08:26:56.396Z,91.9
2018-06-12T08:27:16.541Z,90.8
2018-06-12T08:27:36.814Z,90.1
2018-06-12T08:27:57.048Z,90.2
2018-06-12T08:28:17.294Z,90.2
2018-06-12T08:28:37.476Z,90.6
2018-06-12T08:28:57.732Z,89.5
2018-06-12T08:29:17.968Z,89
2018-06-12T08:29:38.295Z,89.1
2018-06-12T08:29:58.899Z,88.5
2018-06-12T08:30:19.385Z,88.8
2018-06-12T08:30:39.670Z,89.3
2018-06-12T08:30:59.821Z,89.5
2018-06-12T08:31:20.018Z,89.6
2018-06-12T08:31:40.196Z,90
2018-06-12T08:32:00.482Z,89.5
2018-06-12T08:32:21.487Z,90
2018-06-12T08:32:41.721Z,90.9
2018-06-12T08:33:01.940Z,91.5
2018-06-12T08:33:22.217Z,91.4
2018-06-12T08:33:42.490Z,89.9
2018-06-12T08:34:02.768Z,90.1
2018-06-12T08:34:22.946Z,90.8
2018-06-12T08:34:43.192Z,91.9
2018-06-12T08:35:03.478Z,92.3
2018-06-12T08:35:23.657Z,90.8
2018-06-12T08:35:43.906Z,89.7
2018-06-12T08:36:04.035Z,90.6
2018-06-12T08:36:24.173Z,91.2
2018-06-12T08:36:44.325Z,90
2018-06-12T08:37:05.295Z,91.9
2018-06-12T08:37:25.546Z,91.2
2018-06-12T08:37:45.769Z,91.1
2018-06-12T08:38:05.944Z,90.1
2018-06-12T08:38:26.277Z,90.2
2018-06-12T08:38:46.516Z,90.2
2018-06-12T08:39:06.656Z,90
2018-06-12T08:39:26.841Z,88.9
2018-06-12T08:39:47.005Z,88.6
2018-06-12T08:40:07.189Z,88.8
2018-06-12T08:40:27.375Z,88.6
2018-06-12T08:40:47.745Z,89.6
2018-06-12T08:41:08.035Z,90.2
2018-06-12T08:41:28.395Z,90.3
2018-06-12T08:41:48.578Z,90.6
2018-06-12T08:42:08.895Z,91.4
2018-06-12T08:42:29.053Z,91.6
2018-06-12T08:42:49.223Z,91.2
2018-06-12T08:43:09.474Z,90.4
2018-06-12T08:43:29.665Z,90.7
2018-06-12T08:43:49.915Z,90.2
2018-06-12T08:44:10.165Z,89.1
2018-06-12T08:44:30.353Z,89.2
2018-06-12T08:44:50.624Z,89.6
2018-06-12T08:45:10.826Z,90.2
2018-06-12T08:45:31.035Z,90.2
2018-06-12T08:45:51.343Z,89.6
2018-06-12T08:46:11.573Z,89.9
2018-06-12T08:46:31.866Z,90.2
2018-06-12T08:46:51.998Z,89
2018-06-12T08:47:12.158Z,89.7
2018-06-12T08:47:32.491Z,90.3
2018-06-12T08:47:52.700Z,90.8
2018-06-12T08:48:12.866Z,90.2
2018-06-12T08:48:33.019Z,89.3
2018-06-12T08:48:53.193Z,89.8
2018-06-12T08:49:13.367Z,89.6
2018-06-12T08:49:33.557Z,90.4
2018-06-12T08:49:53.718Z,90.2
2018-06-12T08:50:13.903Z,89.6
2018-06-12T08:50:34.102Z,88.6
2018-06-12T08:50:54.303Z,89.3
2018-06-12T08:51:14.511Z,89.8
2018-06-12T08:51:34.751Z,89.2
2018-06-12T08:51:54.913Z,90.1
2018-06-12T08:52:15.184Z,88.2
2018-06-12T08:52:35.344Z,86.2
2018-06-12T08:52:55.593Z,86.8
2018-06-12T08:53:16.686Z,88.1
2018-06-12T08:53:36.925Z,88.5
2018-06-12T08:53:57.061Z,89.8
2018-06-12T08:54:17.316Z,90.2
2018-06-12T08:54:37.505Z,89.8
2018-06-12T08:54:57.767Z,88.4
2018-06-12T08:55:18.035Z,87.7
2018-06-12T08:55:38.262Z,85.7
2018-06-12T08:55:59.168Z,85.6
2018-06-12T08:56:19.377Z,88
2018-06-12T08:56:39.571Z,89.4
2018-06-12T08:56:59.870Z,90.1
2018-06-12T08:57:20.034Z,89.3
2018-06-12T08:57:40.218Z,89.4
2018-06-12T08:58:00.379Z,89
2018-06-12T08:58:20.537Z,88.4
2018-06-12T08:58:40.809Z,88.1
2018-06-12T08:59:00.990Z,89.4
2018-06-12T08:59:21.232Z,88.4
2018-06-12T08:59:41.500Z,89.3
2018-06-12T09:00:01.659Z,88.8
2018-06-12T09:00:21.872Z,86.7
2018-06-12T09:00:42.053Z,87.3
2018-06-12T09:01:02.272Z,87.8
2018-06-12T09:01:22.408Z,86
2018-06-12T09:01:42.663Z,86.8
2018-06-12T09:02:02.833Z,87.4
2018-06-12T09:02:23.067Z,86.3
2018-06-12T09:02:43.267Z,86
2018-06-12T09:03:03.477Z,87.6
2018-06-12T09:03:23.819Z,88.3
2018-06-12T09:03:44.134Z,87.8
2018-06-12T09:04:04.413Z,87.2
2018-06-12T09:04:24.592Z,88
2018-06-12T09:04:44.828Z,88.3
2018-06-12T09:05:04.833Z,88.9
2018-06-12T09:05:24.998Z,88
2018-06-12T09:05:45.171Z,88
2018-06-12T09:06:05.351Z,88
2018-06-12T09:06:25.639Z,88.2
2018-06-12T09:06:45.770Z,88.4
2018-06-12T09:07:05.938Z,89.2
2018-06-12T09:07:26.138Z,89.8
2018-06-12T09:07:46.372Z,88.3
2018-06-12T09:08:06.603Z,87.4
2018-06-12T09:08:26.761Z,87.9
2018-06-12T09:08:46.987Z,88.6
2018-06-12T09:09:07.213Z,89.2
2018-06-12T09:09:27.404Z,90
2018-06-12T09:09:47.608Z,89
2018-06-12T09:10:07.837Z,87.9
2018-06-12T09:10:28.034Z,88
2018-06-12T09:10:48.201Z,88.4
2018-06-12T09:11:08.439Z,88.7
2018-06-12T09:11:28.599Z,89.4
2018-06-12T09:11:48.880Z,88.6
2018-06-12T09:12:09.052Z,88.4
2018-06-12T09:12:29.248Z,89.9
2018-06-12T09:12:49.396Z,90.1
2018-06-12T09:13:09.569Z,90
2018-06-12T09:13:29.761Z,89.4
2018-06-12T09:13:49.953Z,89.5
2018-06-12T09:14:10.639Z,88
2018-06-12T09:14:30.796Z,88.4
2018-06-12T09:14:51.013Z,89.7
2018-06-12T09:15:11.183Z,90
2018-06-12T09:15:31.385Z,90.1
2018-06-12T09:15:51.548Z,89.3
2018-06-12T09:16:11.800Z,89.3
2018-06-12T09:16:31.984Z,89.3
2018-06-12T09:16:52.211Z,89.4
2018-06-12T09:17:12.402Z,89.7
2018-06-12T09:17:32.591Z,90
2018-06-12T09:17:52.847Z,89.9
2018-06-12T09:18:13.061Z,90
2018-06-12T09:18:33.255Z,89.3
2018-06-12T09:18:53.570Z,89.1
2018-06-12T09:19:13.883Z,89.6
2018-06-12T09:19:34.129Z,89.2
2018-06-12T09:19:54.292Z,89.4
2018-06-12T09:20:14.449Z,89.3
2018-06-12T09:20:34.813Z,88
2018-06-12T09:20:55.020Z,86.9
2018-06-12T09:21:15.288Z,86.7
2018-06-12T09:21:35.624Z,87.2
2018-06-12T09:21:55.819Z,87.6
2018-06-12T09:22:16.000Z,88.1
2018-06-12T09:22:36.172Z,86.2
2018-06-12T09:22:56.333Z,86.2
2018-06-12T09:23:16.516Z,86.7
2018-06-12T09:23:36.855Z,86.7
2018-06-12T09:23:57.038Z,85.6
2018-06-12T09:24:17.296Z,85.6
2018-06-12T09:24:37.537Z,85.8
2018-06-12T09:24:57.772Z,87.4
2018-06-12T09:25:18.013Z,88.4
2018-06-12T09:25:38.181Z,87.9
2018-06-12T09:25:58.354Z,87.9
2018-06-12T09:26:18.658Z,87.3
2018-06-12T09:26:38.905Z,87.3
2018-06-12T09:26:59.200Z,87.8
2018-06-12T09:27:19.439Z,88.1
2018-06-12T09:27:39.628Z,88.3
2018-06-12T09:27:59.842Z,87.7
2018-06-12T09:28:20.028Z,89
2018-06-12T09:28:40.201Z,89.3
2018-06-12T09:29:00.364Z,88.6
2018-06-12T09:29:20.530Z,88.6
2018-06-12T09:29:40.706Z,89.6
2018-06-12T09:30:00.888Z,90
2018-06-12T09:30:21.046Z,90.1
2018-06-12T09:30:41.229Z,89
2018-06-12T09:31:01.388Z,88.5
2018-06-12T09:31:21.693Z,88.3
2018-06-12T09:31:41.913Z,86.7
2018-06-12T09:32:02.051Z,85.6
2018-06-12T09:32:22.217Z,85.8
2018-06-12T09:32:42.417Z,86
2018-06-12T09:33:02.675Z,85.6
2018-06-12T09:33:22.842Z,86.1
2018-06-12T09:33:43.042Z,86
2018-06-12T09:34:03.206Z,85.8
2018-06-12T09:34:23.370Z,85.4
2018-06-12T09:34:43.589Z,85.2
2018-06-12T09:35:03.759Z,86.5
2018-06-12T09:35:23.948Z,86.6
2018-06-12T09:35:44.154Z,83.7
2018-06-12T09:36:04.329Z,82.7
2018-06-12T09:36:24.621Z,83.3
2018-06-12T09:36:44.842Z,84.1
2018-06-12T09:37:05.033Z,84.9
2018-06-12T09:37:25.220Z,85.3
2018-06-12T09:37:45.406Z,83.8
2018-06-12T09:38:05.584Z,84.2
2018-06-12T09:38:25.892Z,84.8
2018-06-12T09:38:46.081Z,85.3
2018-06-12T09:39:06.230Z,86
2018-06-12T09:39:26.405Z,86.7
2018-06-12T09:39:46.577Z,87.6
2018-06-12T09:40:06.845Z,87.7
2018-06-12T09:40:27.004Z,86.7
2018-06-12T09:40:47.209Z,87.8
2018-06-12T09:41:07.356Z,87.4
2018-06-12T09:41:27.524Z,85.6
2018-06-12T09:41:47.704Z,84.7
2018-06-12T09:42:08.033Z,85.4
2018-06-12T09:42:28.193Z,83.5
2018-06-12T09:42:48.409Z,84.5
2018-06-12T09:43:08.561Z,84.9
2018-06-12T09:43:28.780Z,85.4
2018-06-12T09:43:48.936Z,83.9
2018-06-12T09:44:09.194Z,83.6
2018-06-12T09:44:30.206Z,84.7
2018-06-12T09:44:50.404Z,85.7
2018-06-12T09:45:10.559Z,83.1
2018-06-12T09:45:30.824Z,82.7
2018-06-12T09:45:50.982Z,82.5
2018-06-12T09:46:11.212Z,82.8
2018-06-12T09:46:31.453Z,83.4
2018-06-12T09:46:51.626Z,84.5
2018-06-12T09:47:11.829Z,84.2
2018-06-12T09:47:32.015Z,84.9
2018-06-12T09:47:52.327Z,84.6
2018-06-12T09:48:12.553Z,85.5
2018-06-12T09:48:32.731Z,84.8
2018-06-12T09:48:52.890Z,84
2018-06-12T09:49:13.138Z,84.4
2018-06-12T09:49:33.354Z,85.3
2018-06-12T09:49:53.538Z,85.2
2018-06-12T09:50:13.696Z,84.3
2018-06-12T09:50:33.975Z,85.3
2018-06-12T09:50:54.140Z,85.5
2018-06-12T09:51:15.227Z,85.6
2018-06-12T09:51:35.397Z,86.9
2018-06-12T09:51:55.662Z,85.9
2018-06-12T09:52:15.923Z,86.2
2018-06-12T09:52:36.117Z,85.1
2018-06-12T09:52:56.351Z,85.2
2018-06-12T09:53:16.530Z,84.3
2018-06-12T09:53:36.713Z,83.5
2018-06-12T09:53:56.879Z,82.7
2018-06-12T09:54:17.056Z,82.3
2018-06-12T09:54:37.260Z,82.8
2018-06-12T09:54:57.516Z,83.5
2018-06-12T09:55:17.709Z,84
2018-06-12T09:55:37.888Z,84.7
2018-06-12T09:55:58.133Z,85.2
2018-06-12T09:56:18.371Z,85.8
2018-06-12T09:56:38.519Z,85.9
2018-06-12T09:56:58.708Z,86.2
2018-06-12T09:57:18.958Z,86.4
2018-06-12T09:57:39.776Z,85.6
2018-06-12T09:58:00.176Z,86.1
2018-06-12T09:58:20.447Z,86.5
2018-06-12T09:58:40.620Z,85.9
2018-06-12T09:59:00.971Z,85.9
2018-06-12T09:59:21.284Z,86.9
2018-06-12T09:59:41.456Z,86.5
2018-06-12T10:00:01.700Z,85.8
2018-06-12T10:00:21.998Z,85.4
2018-06-12T10:00:42.182Z,84.7
2018-06-12T10:01:03.208Z,85.4
2018-06-12T10:01:23.456Z,87.5
2018-06-12T10:01:44.177Z,86.3
2018-06-12T10:02:04.370Z,83.7
2018-06-12T10:02:24.653Z,81.9
2018-06-12T10:02:44.912Z,81.5
2018-06-12T10:03:05.050Z,82.5
2018-06-12T10:03:25.421Z,83.3
2018-06-12T10:03:46.365Z,84.1
2018-06-12T10:04:06.638Z,83.5
2018-06-12T10:04:26.893Z,84.1
2018-06-12T10:04:47.055Z,84.9
2018-06-12T10:05:07.041Z,85.1
2018-06-12T10:05:27.309Z,85.5
2018-06-12T10:05:47.552Z,84.7
2018-06-12T10:06:07.732Z,84
2018-06-12T10:06:27.974Z,81.3
2018-06-12T10:06:48.146Z,80.9
2018-06-12T10:07:08.297Z,81.5